Station: Noarlunga

  Atmospheric Gas Attenuation - ITU Rec 676-11   --------------- db/100km ---------------
Date Time Temp RH % AH g/m3 Dew Point Wind Direction Speed kph Gust kph Barometer mB Rainfall Since 9am 24GHz 47GHz 76GHz 122GHz 134GHz 241GHz
24 19:50 31.6 27 8.93 10.3 4 6 1013.1 0 19.4 21.8 33.0 86.7 82.2 283.8
24 19:40 31.4 29 9.48 11.2 6 6 1013.1 0 20.6 22.5 34.9 91.7 88.3 305.1
24 19:30 31.7 29 9.64 11.5 7 13 1013.1 0 20.9 22.7 35.3 92.7 89.7 310.0
24 19:20 31.7 27 8.97 10.9 11 13 1013.1 0 19.5 21.8 33.1 86.9 82.5 285.0
24 19:10 32.8 27 9.51 11.3 6 7 1013.1 0 20.6 22.2 34.4 90.4 87.1 301.1
24 19:00 32.3 27 9.26 10.9 4 9 1013.1 0 20.1 22.0 33.8 88.8 85.0 293.6
24 18:50 32.6 26 9.06 10.6 7 7 1013.1 0 19.7 21.7 33.1 86.8 82.6 285.2
24 18:40 33.7 27 9.98 12.1 7 11 1013.1 0 21.5 22.6 35.6 93.4 91.1 315.2
24 18:30 34.9 21 8.26 9.3 17 28 1013.1 0 17.9 20.2 29.7 77.9 72.3 249.4
24 18:20 38 10 4.62 1.1 19 24 1013.1 0 10.5 15.5 18.9 48.8 37.2 126.2
24 18:10 38.7 9 4.31 0.1 13 17 1013.1 0 9.8 15.1 17.9 46.4 34.4 116.2
24 18:00 39.3 9 4.44 0.6 9 13 1013.1 0 10.1 15.1 18.1 46.9 35.2 119.1
24 17:50 39.1 10 4.88 1.9 7 9 1013.1 0 10.9 15.6 19.3 50.0 38.9 132.2
24 17:40 38.6 10 4.76 1.5 7 9 1013.1 0 10.7 15.6 19.1 49.5 38.1 129.4
24 17:30 38.4 10 4.71 1.4 9 15 1013.1 0 10.6 15.5 19.0 49.2 37.8 128.2
24 17:20 38.5 11 5.21 2.8 11 17 1013.1 0 11.6 16.0 20.3 52.6 42.0 142.9
24 17:10 38.1 11 5.1 2.5 9 11 1013.1 0 11.4 16.0 20.1 52.1 41.2 140.3
24 17:00 38.4 12 5.65 4 9 15 1013.1 0 12.5 16.5 21.4 55.7 45.8 156.4
24 16:50 37.8 16 7.31 7.6 7 7 1013.1 0 15.9 18.5 26.1 68.1 61.0 209.8
24 16:40 36.1 19 7.96 8.8 11 13 1013.1 0 17.3 19.6 28.5 74.5 68.4 235.7
24 16:30 36.3 21 8.89 10.5 17 30 1013.1 0 19.2 20.7 31.1 81.7 77.3 267.0
24 16:20 40.8 9 4.78 1.7 19 24 1013.1 0 10.7 15.2 18.7 48.4 37.4 126.8
24 16:10 42.8 8 4.7 1.5 19 28 1013.1 0 10.5 14.9 18.1 46.8 35.9 121.8
24 16:00 41.7 8 4.45 0.8 19 28 1013.1 0 10.0 14.8 17.7 45.8 34.3 116.2
24 15:50 41.4 9 4.93 2.1 17 22 1013.1 0 11.0 15.3 18.9 49.0 38.3 130.3
24 15:40 41.2 9 4.88 2 17 22 1013.1 0 10.9 15.3 18.8 48.8 38.0 129.1
24 15:30 40.8 9 4.78 1.7 20 30 1013.1 0 10.7 15.2 18.7 48.4 37.4 126.8
24 15:20 40.5 9 4.71 1.5 17 20 1013.1 0 10.6 15.2 18.6 48.1 36.9 125.2
24 15:10 40.6 9 4.74 1.6 24 32 1013.1 0 10.6 15.2 18.6 48.2 37.1 126.0
24 15:00 40.3 10 5.19 2.8 20 33 1013.1 0 11.5 15.7 19.8 51.4 40.9 139.5
24 14:50 40.6 10 5.26 3 19 24 1013.1 0 11.7 15.8 19.9 51.7 41.4 141.0
24 14:40 39.6 11 5.51 3.6 26 33 1013.1 0 12.2 16.2 20.8 54.0 44.0 150.1
24 14:30 40 11 5.62 4 20 33 1013.1 0 12.4 16.2 21.0 54.5 44.7 152.7
24 14:20 39.9 11 5.59 3.9 17 24 1013.1 0 12.3 16.2 20.9 54.3 44.5 151.9
24 14:10 39.6 10 5.01 2.3 22 28 1013.1 0 11.2 15.7 19.5 50.6 39.8 135.3
24 14:00 40.8 10 5.32 3.2 24 35 1013.1 0 11.8 15.8 20.0 52.0 41.8 142.5
24 13:50 40.5 10 5.24 3 20 26 1013.1 0 11.6 15.8 19.9 51.6 41.3 140.6
24 13:40 40.9 9 4.81 1.8 24 28 1013.1 0 10.8 15.3 18.7 48.5 37.6 127.5
24 13:30 40.5 9 4.71 1.5 24 33 1013.1 0 10.6 15.2 18.6 48.1 36.9 125.2
24 13:20 40.2 9 4.64 1.3 28 33 1013.1 0 10.4 15.2 18.5 47.8 36.5 123.7
24 13:10 41 8 4.3 0.2 19 22 1013.1 0 9.7 14.7 17.5 45.1 33.4 112.9
24 13:00 40.4 8 4.17 -0.2 28 39 1013.1 0 9.5 14.7 17.3 44.6 32.6 110.0
24 12:50 40.7 7 3.7 -1.8 32 37 1013.1 0 8.5 14.2 16.1 41.5 28.8 96.5
24 12:40 40.6 7 3.68 -1.9 28 33 1013.1 0 8.5 14.2 16.1 41.4 28.7 96.1
24 12:30 40.9 7 3.74 -1.6 28 43 1013.1 0 8.6 14.2 16.2 41.6 29.0 97.4
24 12:20 41.2 7 3.8 -1.5 28 37 1013.1 0 8.7 14.2 16.2 41.9 29.4 98.8
24 12:10 41 7 3.76 -1.6 19 22 1013.1 0 8.6 14.2 16.2 41.7 29.2 97.9
24 12:00 40.2 7 3.61 -2.1 30 44 1013.1 0 8.4 14.2 16.0 41.1 28.2 94.6
24 11:50 42 6 3.39 -3 28 37 1013.1 0 7.9 13.7 15.1 38.9 26.0 86.8
24 11:40 41.6 7 3.87 -1.2 19 28 1013.1 0 8.9 14.2 16.3 42.1 29.8 100.3
24 11:30 40.8 7 3.72 -1.7 24 39 1013.1 0 8.6 14.2 16.1 41.5 28.9 97.0
24 11:20 40.4 7 3.65 -2 20 30 1013.1 0 8.4 14.2 16.0 41.3 28.5 95.5
24 11:10 38.7 8 3.83 -1.5 30 37 1013.1 0 8.8 14.6 16.8 43.2 30.5 102.4
24 11:00 38.6 8 3.81 -1.5 20 32 1013.1 0 8.8 14.6 16.7 43.2 30.4 101.9
24 10:50 37.9 8 3.67 -2 28 32 1013.1 0 8.5 14.6 16.5 42.6 29.5 98.7
24 10:40 37.4 8 3.58 -2.4 32 39 1013.1 0 8.4 14.5 16.4 42.2 28.9 96.7
24 10:30 37.2 8 3.55 -2.5 24 39 1013.1 0 8.3 14.5 16.4 42.1 28.7 96.1
24 10:20 36.9 8 3.49 -2.8 24 28 1013.1 0 8.2 14.5 16.3 41.9 28.3 94.7
24 10:10 36.5 9 3.85 -1.5 26 35 1013.1 0 8.9 14.9 17.2 44.5 31.4 105.5
24 10:00 36.3 9 3.81 -1.6 26 46 1013.1 0 8.9 14.9 17.2 44.3 31.2 104.6
24 09:50 36.2 9 3.79 -1.7 28 37 1013.1 0 8.8 14.9 17.2 44.2 31.0 104.1
24 09:40 36.2 9 3.79 -1.7 26 32 1013.1 0 8.8 14.9 17.2 44.2 31.0 104.1
24 09:30 36.2 9 3.79 -1.7 24 41 1013.1 0 8.8 14.9 17.2 44.2 31.0 104.1
24 09:20 36.2 8 3.37 -3.3 32 37 1013.1 0 8.0 14.5 16.1 41.4 27.6 92.0
24 09:10 36.2 8 3.37 -3.3 26 37 1013.1 0 8.0 14.5 16.1 41.4 27.6 92.0
24 09:00 36.2 8 3.37 -3.3 24 43 1013.1 0 8.0 14.5 16.1 41.4 27.6 92.0
24 08:50 36.1 8 3.35 -3.4 19 24 1013.1 0 7.9 14.5 16.1 41.3 27.5 91.5
24 08:40 36 8 3.33 -3.4 19 22 1013.1 0 7.9 14.5 16.1 41.3 27.3 91.0
24 08:30 35.5 9 3.65 -2.2 15 30 1013.1 0 8.6 14.9 16.9 43.6 30.1 100.8
24 08:20 34.8 10 3.91 -1.3 11 19 1013.1 0 9.1 15.3 17.7 45.7 32.6 109.4
24 08:10 31.3 19 6.18 4.9 4 6 1013.1 0 13.8 18.4 24.8 64.5 54.8 187.4
24 08:00 30.8 21 6.65 6 0 2 1013.1 0 14.8 19.1 26.3 68.6 59.7 204.6
24 07:50 30.6 19 5.95 4.3 4 4 1013.1 0 13.4 18.2 24.3 63.3 53.0 181.2
24 07:40 32.6 15 5.23 2.6 0 0 1013.1 0 11.8 17.1 21.7 56.4 45.1 153.5
24 07:30 31.7 16 5.32 2.8 6 13 1013.1 0 12.1 17.3 22.2 57.7 46.4 158.1
24 07:20 31 16 5.12 2.2 6 7 1013.1 0 11.7 17.2 21.8 56.6 45.0 152.8
24 07:10 31 16 5.12 2.2 11 15 1013.1 0 11.7 17.2 21.8 56.6 45.0 152.8
24 07:00 30.5 17 5.3 2.7 13 17 1013.1 0 12.0 17.5 22.5 58.3 46.9 159.6
24 06:50 30.2 18 5.52 3.2 11 15 1013.1 0 12.5 17.8 23.2 60.2 49.2 167.5
24 06:40 30.1 18 5.49 3.2 11 13 1013.1 0 12.4 17.8 23.1 60.1 48.9 166.7
24 06:30 30 19 5.76 3.9 11 17 1013.1 0 13.0 18.1 23.9 62.2 51.6 176.0
24 06:20 30.3 19 5.86 4.1 11 15 1013.1 0 13.2 18.2 24.1 62.8 52.3 178.7
24 06:10 30.3 19 5.86 4.1 11 15 1013.1 0 13.2 18.2 24.1 62.8 52.3 178.7
24 05:57 30.7 19 5.98 4.4 17 19 1013.1 0 13.4 18.3 24.4 63.4 53.2 182.0
24 05:50 30.8 19 6.02 4.5 9 13 1013.1 0 13.5 18.3 24.4 63.7 53.6 183.1
24 04:38 30.8 21 6.65 5.9 20 30 1013.1 0 14.8 19.1 26.3 68.6 59.7 204.6
24 04:30 30.9 21 6.69 6 24 35 1013.1 0 14.9 19.1 26.4 68.8 60.0 205.8
24 04:20 30.8 22 6.97 6.6 20 30 1013.1 0 15.5 19.4 27.2 71.2 62.9 215.8
24 04:10 30.7 22 6.93 6.5 17 22 1013.1 0 15.4 19.4 27.2 70.9 62.5 214.6
24 04:00 30.5 23 7.17 7 20 32 1013.1 0 15.9 19.8 28.0 73.1 65.1 223.6
24 03:40 30.3 23 7.09 6.8 20 28 1013.1 0 15.7 19.7 27.8 72.6 64.4 221.3
24 03:30 30.4 23 7.13 7 26 39 1013.1 0 15.8 19.7 27.9 72.8 64.8 222.4
24 03:20 30.2 24 7.36 7.4 22 30 1013.1 0 16.3 20.1 28.6 74.9 67.2 231.1
24 03:10 30.1 24 7.32 7.3 24 32 1013.1 0 16.2 20.0 28.5 74.6 66.9 230.0
24 03:00 30.2 24 7.36 7.4 26 43 1013.1 0 16.3 20.1 28.6 74.9 67.2 231.1
24 02:50 30.3 23 7.09 7.4 32 41 1013.1 0 15.7 19.7 27.8 72.6 64.4 221.3
24 02:40 30.2 24 7.36 7.4 26 35 1013.1 0 16.3 20.1 28.6 74.9 67.2 231.1
24 02:30 30.2 24 7.36 7.4 26 41 1013.1 0 16.3 20.1 28.6 74.9 67.2 231.1
24 02:20 30.3 23 7.09 7.4 26 41 1013.1 0 15.7 19.7 27.8 72.6 64.4 221.3
24 02:10 30.4 24 7.44 7.5 26 35 1013.1 0 16.4 20.1 28.8 75.4 67.9 233.4

Last Refresh: 24-Jan-2021 19:54:57

Most of the information presented on this site is sourced from the Bureau of Meteorology.  Copyright in all material sourced from the Bureau of Meteorology resides with the Commonwealth of Australia.